Time;durP1;ratioP1;P1;durP2;ratioP2;P2;SDS_P1;SDS_P2;PMS_P1;PMS_P2;Temp;Humidity;BMP_temperature;BMP_pressure;BME280_temperature;BME280_humidity;BME280_pressure;Samples;Min_cycle;Max_cycle;Signal;HPM_P1;HPM_P2
2023/02/19 00:02:11;;;;;;;4.70;1.27;;;18.30;51.90;;;;;;5074707;28;20187;-69
2023/02/19 00:04:39;;;;;;;5.90;1.70;;;18.30;51.90;;;;;;5074877;28;20215;-69
2023/02/19 00:07:06;;;;;;;5.00;1.55;;;18.30;51.90;;;;;;5074307;28;20621;-69
2023/02/19 00:09:33;;;;;;;4.90;1.40;;;18.30;51.90;;;;;;5074311;28;20360;-69
2023/02/19 00:12:00;;;;;;;5.22;1.63;;;18.30;51.90;;;;;;5074503;28;20256;-69
2023/02/19 00:14:27;;;;;;;6.28;1.58;;;18.30;51.80;;;;;;5074370;28;20214;-70
2023/02/19 00:16:54;;;;;;;5.93;1.38;;;18.30;51.80;;;;;;5073957;28;20230;-69
2023/02/19 00:19:22;;;;;;;4.50;1.27;;;18.30;51.80;;;;;;5074148;28;20223;-69
2023/02/19 00:21:52;;;;;;;5.10;1.38;;;18.30;51.80;;;;;;5073962;28;20661;-70
2023/02/19 00:24:20;;;;;;;4.35;1.27;;;18.30;51.90;;;;;;5074124;28;20219;-69
2023/02/19 00:26:47;;;;;;;3.83;1.67;;;18.20;51.80;;;;;;5073795;28;20195;-69
2023/02/19 00:29:17;;;;;;;7.25;1.60;;;18.20;51.80;;;;;;5074042;28;20692;-69
2023/02/19 00:31:45;;;;;;;4.32;1.45;;;18.20;51.80;;;;;;5073354;28;20179;-69
2023/02/19 00:34:12;;;;;;;4.50;1.48;;;18.20;51.80;;;;;;5073922;28;20222;-69
2023/02/19 00:36:42;;;;;;;4.15;1.23;;;18.20;51.80;;;;;;5073623;28;20244;-68
2023/02/19 00:39:14;;;;;;;7.10;1.60;;;18.20;51.80;;;;;;5073712;28;20230;-69
2023/02/19 00:41:41;;;;;;;6.53;1.38;;;18.30;51.80;;;;;;5073594;28;20191;-69
2023/02/19 00:44:10;;;;;;;5.13;1.50;;;18.20;51.70;;;;;;5073534;28;20615;-69
2023/02/19 00:46:39;;;;;;;6.43;1.90;;;18.20;51.70;;;;;;5073723;28;20594;-70
2023/02/19 00:49:08;;;;;;;4.45;1.42;;;18.20;51.70;;;;;;5073705;28;20276;-69
2023/02/19 00:51:37;;;;;;;7.28;1.73;;;18.20;51.70;;;;;;5073717;28;20195;-70
2023/02/19 00:54:06;;;;;;;5.60;1.60;;;18.20;51.70;;;;;;5073403;28;20634;-68
2023/02/19 00:56:34;;;;;;;4.35;1.65;;;18.20;51.70;;;;;;5072889;28;20245;-68
2023/02/19 00:59:01;;;;;;;5.65;1.50;;;18.20;51.70;;;;;;5073395;28;20238;-69
2023/02/19 01:01:28;;;;;;;4.05;1.42;;;18.10;51.60;;;;;;5072831;28;20280;-69
2023/02/19 01:03:55;;;;;;;6.68;1.48;;;18.20;51.70;;;;;;5073193;28;20715;-69
2023/02/19 01:06:23;;;;;;;4.45;1.30;;;18.20;51.70;;;;;;5073032;28;20652;-69
2023/02/19 01:08:50;;;;;;;3.70;1.45;;;18.10;51.60;;;;;;5072984;28;20214;-69
2023/02/19 01:11:20;;;;;;;3.00;1.25;;;18.10;52.20;;;;;;5073196;28;20194;-68
2023/02/19 01:13:47;;;;;;;8.48;1.80;;;18.10;51.60;;;;;;5073000;28;20750;-69
2023/02/19 01:16:16;;;;;;;6.07;1.55;;;18.10;52.10;;;;;;5072674;28;20793;-69
2023/02/19 01:18:44;;;;;;;4.13;1.80;;;18.10;51.50;;;;;;5073033;28;20226;-69
2023/02/19 01:21:14;;;;;;;6.10;1.77;;;18.20;51.60;;;;;;5072853;28;20240;-69
2023/02/19 01:23:41;;;;;;;4.03;1.38;;;18.10;51.50;;;;;;5073071;28;20215;-69
2023/02/19 01:26:11;;;;;;;5.70;1.83;;;18.10;51.50;;;;;;5072932;28;20191;-69
2023/02/19 01:28:40;;;;;;;5.05;1.33;;;18.10;51.60;;;;;;5073062;28;20219;-70
2023/02/19 01:31:10;;;;;;;4.05;1.48;;;18.10;51.60;;;;;;5072612;28;20186;-69
2023/02/19 01:33:37;;;;;;;7.43;1.70;;;18.10;51.50;;;;;;5072573;28;20268;-69
2023/02/19 01:36:06;;;;;;;6.57;1.65;;;18.10;51.50;;;;;;5072817;28;20260;-68
2023/02/19 01:38:34;;;;;;;4.07;1.30;;;18.10;51.50;;;;;;5070191;28;21021;-68
2023/02/19 01:41:03;;;;;;;3.92;1.30;;;18.10;51.40;;;;;;5072545;28;20252;-69
2023/02/19 01:43:32;;;;;;;3.92;1.25;;;18.10;51.40;;;;;;5072422;28;20222;-69
2023/02/19 01:46:02;;;;;;;7.50;1.90;;;18.10;51.40;;;;;;5072717;28;20193;-68
2023/02/19 01:48:34;;;;;;;6.45;1.63;;;18.10;51.50;;;;;;5069704;28;20222;-69
2023/02/19 01:51:05;;;;;;;5.13;1.48;;;18.10;51.40;;;;;;5072692;28;20329;-69
2023/02/19 01:53:39;;;;;;;6.32;1.50;;;18.10;51.40;;;;;;5072533;28;20275;-68
2023/02/19 01:56:08;;;;;;;4.72;1.33;;;18.10;51.40;;;;;;5071933;28;20183;-68
2023/02/19 01:58:37;;;;;;;5.78;2.22;;;18.00;51.30;;;;;;5072131;28;20658;-69
2023/02/19 02:01:07;;;;;;;4.72;1.23;;;18.10;51.40;;;;;;5072240;28;20722;-69
2023/02/19 02:03:36;;;;;;;5.97;1.73;;;18.00;51.30;;;;;;5072515;28;20252;-69
2023/02/19 02:06:09;;;;;;;8.07;1.95;;;18.10;51.30;;;;;;5072443;28;20274;-69
2023/02/19 02:11:21;;;;;;;7.95;1.40;;;18.00;51.30;;;;;;5072028;28;20682;-69
2023/02/19 02:13:49;;;;;;;7.03;1.58;;;18.00;51.30;;;;;;5072472;28;20280;-69
2023/02/19 02:16:36;;;;;;;6.30;1.33;;;18.10;51.30;;;;;;5071942;28;20238;-69
2023/02/19 02:19:20;;;;;;;5.72;1.50;;;18.00;51.20;;;;;;5071786;28;20272;-69
2023/02/19 02:21:59;;;;;;;3.83;1.50;;;18.10;51.30;;;;;;5072297;28;20183;-70
2023/02/19 02:24:52;;;;;;;6.63;1.60;;;18.00;51.30;;;;;;5072508;28;20219;-69
2023/02/19 02:27:38;;;;;;;7.63;1.40;;;18.00;51.30;;;;;;5071912;28;20184;-69
2023/02/19 02:30:33;;;;;;;6.18;1.40;;;18.00;51.30;;;;;;5071576;28;20692;-69
2023/02/19 02:33:10;;;;;;;3.92;1.30;;;18.00;51.30;;;;;;5069267;28;20271;-69
2023/02/19 02:35:42;;;;;;;4.05;1.38;;;18.00;51.20;;;;;;5071190;28;20645;-69
2023/02/19 02:38:13;;;;;;;4.38;1.40;;;18.00;51.30;;;;;;5071781;28;20244;-69
2023/02/19 02:40:44;;;;;;;6.85;1.67;;;18.00;51.20;;;;;;5070589;28;20635;-69
2023/02/19 02:43:11;;;;;;;5.03;1.45;;;18.00;51.20;;;;;;5071733;28;20656;-69
2023/02/19 02:45:40;;;;;;;4.78;1.60;;;18.00;51.20;;;;;;5072127;28;20199;-68
2023/02/19 02:48:17;;;;;;;4.85;1.55;;;18.00;51.10;;;;;;5072067;28;20187;-70
2023/02/19 02:50:47;;;;;;;5.10;1.27;;;18.00;51.20;;;;;;5071749;28;20190;-69
2023/02/19 02:56:04;;;;;;;5.13;1.23;;;17.90;51.00;;;;;;5071697;28;20233;-69
2023/02/19 02:58:33;;;;;;;3.53;1.20;;;18.00;51.10;;;;;;5071936;28;20236;-69
2023/02/19 03:03:57;;;;;;;4.10;1.10;;;18.00;51.10;;;;;;5071681;28;20352;-68
2023/02/19 03:06:28;;;;;;;4.30;1.33;;;17.90;51.00;;;;;;5071549;28;20225;-69
2023/02/19 03:09:00;;;;;;;4.82;1.52;;;17.80;50.90;;;;;;5071867;28;20629;-69
2023/02/19 03:19:57;;;;;;;4.90;1.10;;;17.90;51.00;;;;;;5071647;28;20232;-69
2023/02/19 03:22:27;;;;;;;5.82;1.42;;;17.90;51.00;;;;;;5071443;28;20191;-69
2023/02/19 03:27:46;;;;;;;5.90;1.38;;;17.90;51.00;;;;;;5074869;28;20174;-69
2023/02/19 03:30:16;;;;;;;3.65;1.00;;;17.90;50.90;;;;;;5075428;28;20272;-68
2023/02/19 03:32:49;;;;;;;3.70;1.27;;;17.90;50.90;;;;;;5075091;28;20187;-69
2023/02/19 03:35:21;;;;;;;5.93;1.65;;;17.90;50.90;;;;;;5075389;28;20272;-69
2023/02/19 03:37:54;;;;;;;7.00;1.88;;;17.90;50.90;;;;;;5075136;28;20191;-70
2023/02/19 03:40:24;;;;;;;4.32;1.40;;;17.90;50.90;;;;;;5074339;28;20741;-69
2023/02/19 03:43:00;;;;;;;2.70;0.90;;;17.80;50.80;;;;;;5075091;28;20195;-69
2023/02/19 03:45:36;;;;;;;3.55;1.08;;;17.90;50.90;;;;;;5075114;28;20218;-70
2023/02/19 03:48:22;;;;;;;4.72;1.33;;;17.80;50.80;;;;;;5074555;28;20186;-68
2023/02/19 03:50:58;;;;;;;3.88;1.42;;;17.90;50.90;;;;;;5074864;28;20264;-70
2023/02/19 03:53:31;;;;;;;4.57;1.20;;;17.90;50.80;;;;;;5074151;28;20603;-68
2023/02/19 03:56:07;;;;;;;3.15;1.10;;;17.80;50.70;;;;;;5074316;28;20203;-68
2023/02/19 03:58:42;;;;;;;5.10;1.50;;;17.90;50.80;;;;;;5074641;28;20641;-69
2023/02/19 04:01:16;;;;;;;4.25;1.38;;;17.80;50.70;;;;;;5074666;28;20260;-68
2023/02/19 04:03:51;;;;;;;4.45;1.13;;;17.90;50.80;;;;;;5074410;28;20183;-68
2023/02/19 04:06:22;;;;;;;4.70;1.77;;;17.80;50.70;;;;;;5074273;28;20191;-69
2023/02/19 04:08:54;;;;;;;3.25;1.20;;;17.80;50.70;;;;;;5074467;28;20233;-69
2023/02/19 04:11:23;;;;;;;6.38;1.63;;;17.80;50.70;;;;;;5074227;28;20248;-68
2023/02/19 04:13:55;;;;;;;4.05;1.27;;;17.80;50.70;;;;;;5074458;28;20183;-68
2023/02/19 04:16:27;;;;;;;5.60;1.50;;;17.80;50.70;;;;;;5073495;28;20792;-69
2023/02/19 04:19:02;;;;;;;3.28;1.08;;;17.80;50.70;;;;;;5074364;28;20305;-69
2023/02/19 04:21:31;;;;;;;7.38;1.50;;;17.80;50.70;;;;;;5074013;28;20259;-69
2023/02/19 04:24:03;;;;;;;3.10;1.15;;;17.80;50.60;;;;;;5074290;28;20218;-69
2023/02/19 04:26:32;;;;;;;4.40;1.42;;;17.80;50.60;;;;;;5074224;28;20183;-69
2023/02/19 04:29:00;;;;;;;3.05;1.17;;;17.80;50.60;;;;;;5073476;28;20210;-69
2023/02/19 04:31:29;;;;;;;4.50;1.15;;;17.80;50.60;;;;;;5073783;28;20249;-68
2023/02/19 04:33:58;;;;;;;4.63;1.40;;;17.80;50.60;;;;;;5073731;28;20774;-69
2023/02/19 04:36:25;;;;;;;5.97;1.25;;;17.80;50.60;;;;;;5073608;28;20183;-69
2023/02/19 04:38:52;;;;;;;4.00;1.33;;;17.80;50.60;;;;;;5073887;28;20674;-69
2023/02/19 04:41:19;;;;;;;5.85;1.45;;;17.80;50.60;;;;;;5073165;28;20241;-68
2023/02/19 04:43:46;;;;;;;3.42;1.30;;;17.80;50.60;;;;;;5073549;28;20191;-69
2023/02/19 04:46:13;;;;;;;4.55;1.10;;;17.80;50.60;;;;;;5073690;28;20582;-69
2023/02/19 04:48:41;;;;;;;5.53;1.50;;;17.80;50.60;;;;;;5073766;28;20191;-69
2023/02/19 04:51:10;;;;;;;5.45;1.38;;;17.80;50.60;;;;;;5073530;28;20194;-69
2023/02/19 04:53:38;;;;;;;4.35;1.20;;;17.80;50.70;;;;;;5073628;28;20594;-69
2023/02/19 04:56:09;;;;;;;4.93;1.65;;;17.80;50.60;;;;;;5073347;28;20765;-69
2023/02/19 04:58:36;;;;;;;4.55;1.38;;;17.80;50.60;;;;;;5073268;28;20248;-69
2023/02/19 05:01:04;;;;;;;4.88;1.30;;;17.80;50.70;;;;;;5073641;28;20280;-69
2023/02/19 05:03:33;;;;;;;4.35;1.20;;;17.80;50.70;;;;;;5073274;28;20227;-69
2023/02/19 05:06:03;;;;;;;5.55;1.40;;;17.80;50.60;;;;;;5073367;28;20214;-69
2023/02/19 05:08:32;;;;;;;5.53;1.67;;;17.70;50.50;;;;;;5073085;28;20274;-69
2023/02/19 05:11:00;;;;;;;5.43;1.40;;;17.80;50.60;;;;;;5073307;28;20219;-69
2023/02/19 05:13:28;;;;;;;6.72;1.38;;;17.80;50.70;;;;;;5073290;28;20187;-68
2023/02/19 05:15:56;;;;;;;4.28;1.33;;;17.80;50.60;;;;;;5072546;28;20292;-68
2023/02/19 05:18:23;;;;;;;6.70;1.73;;;17.80;50.60;;;;;;5072850;28;20199;-69
2023/02/19 05:20:51;;;;;;;6.38;1.40;;;17.80;50.60;;;;;;5072935;28;20287;-69
2023/02/19 05:23:18;;;;;;;9.30;1.98;;;17.80;50.60;;;;;;5073094;28;20191;-69
2023/02/19 05:25:46;;;;;;;5.15;1.45;;;17.80;50.60;;;;;;5072742;28;20271;-69
2023/02/19 05:28:19;;;;;;;6.47;1.58;;;17.70;50.50;;;;;;5072730;28;20603;-69
2023/02/19 05:30:49;;;;;;;5.32;1.23;;;17.80;50.60;;;;;;5073119;28;20268;-69
2023/02/19 05:33:17;;;;;;;6.72;1.80;;;17.80;50.60;;;;;;5072646;28;20187;-69
2023/02/19 05:35:46;;;;;;;5.10;1.58;;;17.70;50.50;;;;;;5072719;28;20214;-68
2023/02/19 05:38:13;;;;;;;5.03;1.50;;;17.70;50.50;;;;;;5072491;28;20187;-69
2023/02/19 05:40:41;;;;;;;5.07;1.38;;;17.70;50.50;;;;;;5072900;28;20227;-69
2023/02/19 05:43:10;;;;;;;5.95;1.67;;;17.70;50.60;;;;;;5072804;28;20232;-67
2023/02/19 05:45:38;;;;;;;5.82;1.70;;;17.70;50.50;;;;;;5071950;28;20215;-68
2023/02/19 05:48:06;;;;;;;5.47;1.77;;;17.70;50.50;;;;;;5072434;28;20244;-69
2023/02/19 05:50:35;;;;;;;6.35;1.73;;;17.70;50.50;;;;;;5072064;28;20226;-69
2023/02/19 05:53:03;;;;;;;6.60;1.50;;;17.70;50.60;;;;;;5072655;28;20271;-69
2023/02/19 05:55:34;;;;;;;4.35;1.52;;;17.70;50.50;;;;;;5072405;28;20592;-69
2023/02/19 05:58:01;;;;;;;5.35;1.67;;;17.70;50.50;;;;;;5072245;28;20187;-69
2023/02/19 06:00:30;;;;;;;4.50;1.30;;;17.70;50.50;;;;;;5072324;28;20234;-69
2023/02/19 06:02:57;;;;;;;7.43;1.50;;;17.70;50.50;;;;;;5071797;28;20236;-69
2023/02/19 06:05:24;;;;;;;6.50;1.80;;;17.70;50.50;;;;;;5072633;28;20645;-69
2023/02/19 06:07:51;;;;;;;6.25;1.60;;;17.70;50.60;;;;;;5072509;28;20194;-69
2023/02/19 06:10:19;;;;;;;6.45;1.80;;;17.70;50.50;;;;;;5072520;28;20562;-69
2023/02/19 06:12:46;;;;;;;5.10;1.70;;;17.70;50.50;;;;;;5072453;28;20252;-70
2023/02/19 06:15:13;;;;;;;4.32;1.35;;;17.70;50.50;;;;;;5071824;28;20288;-69
2023/02/19 06:17:41;;;;;;;6.72;1.60;;;17.70;50.50;;;;;;5072046;28;20191;-69
2023/02/19 06:20:09;;;;;;;8.18;2.08;;;17.70;50.50;;;;;;5072498;28;20230;-70
2023/02/19 06:22:36;;;;;;;5.47;1.58;;;17.70;50.60;;;;;;5072310;28;20244;-69
2023/02/19 06:25:06;;;;;;;7.15;1.83;;;17.70;50.50;;;;;;5072454;28;20218;-69
2023/02/19 06:27:33;;;;;;;6.72;1.48;;;17.70;50.50;;;;;;5071857;28;20186;-69
2023/02/19 06:30:01;;;;;;;8.45;1.73;;;17.70;50.50;;;;;;5071951;28;20218;-69
2023/02/19 06:32:28;;;;;;;8.65;1.73;;;17.70;50.50;;;;;;5072226;28;20256;-69
2023/02/19 06:34:56;;;;;;;5.13;1.45;;;17.70;50.50;;;;;;5072294;28;20276;-68
2023/02/19 06:37:23;;;;;;;6.00;1.60;;;17.60;50.40;;;;;;5072180;28;20637;-69
2023/02/19 06:39:51;;;;;;;8.77;1.63;;;17.70;50.40;;;;;;5071729;28;20284;-68
2023/02/19 06:42:18;;;;;;;5.65;1.63;;;17.60;50.40;;;;;;5072070;28;20194;-69
2023/02/19 06:44:45;;;;;;;5.63;1.60;;;17.70;50.40;;;;;;5072122;28;20219;-69
2023/02/19 06:47:12;;;;;;;5.03;1.63;;;17.70;50.40;;;;;;5072077;28;20352;-69
2023/02/19 06:49:40;;;;;;;5.35;1.38;;;17.60;50.40;;;;;;5071830;28;20272;-69
2023/02/19 06:52:08;;;;;;;5.75;1.70;;;17.60;50.30;;;;;;5071813;28;20567;-69
2023/02/19 06:54:35;;;;;;;5.82;1.75;;;17.60;50.30;;;;;;5071741;28;20632;-68
2023/02/19 06:57:02;;;;;;;7.60;1.55;;;17.60;50.30;;;;;;5071937;28;20242;-68
2023/02/19 06:59:29;;;;;;;5.05;1.73;;;17.60;50.20;;;;;;5074640;28;20187;-69
2023/02/19 07:01:56;;;;;;;6.28;2.05;;;17.60;50.30;;;;;;5075743;28;20215;-69
2023/02/19 07:04:23;;;;;;;5.68;1.73;;;17.60;50.20;;;;;;5074979;28;20714;-69
2023/02/19 07:06:51;;;;;;;7.28;2.20;;;17.60;50.20;;;;;;5075743;28;20191;-69
2023/02/19 07:09:19;;;;;;;5.43;1.60;;;17.60;50.20;;;;;;5075622;28;20182;-69
2023/02/19 07:11:46;;;;;;;6.68;1.73;;;17.60;50.30;;;;;;5075800;28;20225;-69
2023/02/19 07:14:16;;;;;;;5.97;1.83;;;17.60;50.20;;;;;;5075636;28;20186;-68
2023/02/19 07:16:46;;;;;;;6.38;1.95;;;17.60;50.20;;;;;;5074819;28;20305;-69
2023/02/19 07:19:13;;;;;;;6.15;1.90;;;17.60;50.30;;;;;;5075323;28;20209;-69
2023/02/19 07:21:41;;;;;;;6.25;1.67;;;17.60;50.20;;;;;;5075383;28;20314;-69
2023/02/19 07:24:09;;;;;;;5.95;1.60;;;17.60;50.20;;;;;;5075192;28;20198;-69
2023/02/19 07:26:37;;;;;;;4.00;1.60;;;17.60;50.20;;;;;;5074744;28;21109;-69
2023/02/19 07:29:06;;;;;;;5.03;1.80;;;17.50;50.10;;;;;;5075021;28;20657;-69
2023/02/19 07:31:33;;;;;;;7.45;1.73;;;17.60;50.10;;;;;;5075406;28;20329;-68
2023/02/19 07:34:00;;;;;;;4.88;1.90;;;17.60;50.10;;;;;;5074907;28;20195;-69
2023/02/19 07:36:27;;;;;;;6.93;1.58;;;17.60;50.10;;;;;;5074816;28;20700;-67
2023/02/19 07:38:55;;;;;;;7.53;2.65;;;17.50;50.00;;;;;;5074755;28;20244;-69
2023/02/19 07:41:23;;;;;;;6.05;1.73;;;17.50;50.00;;;;;;5075185;28;20234;-69
2023/02/19 07:43:52;;;;;;;5.00;1.60;;;17.50;50.00;;;;;;5074601;28;20641;-69
2023/02/19 07:46:19;;;;;;;5.75;1.77;;;17.50;50.00;;;;;;5074677;28;20219;-68
2023/02/19 07:48:46;;;;;;;9.38;2.80;;;17.50;50.00;;;;;;5074994;28;20187;-69
2023/02/19 07:51:17;;;;;;;8.38;1.70;;;17.50;50.00;;;;;;5073841;28;20268;-69
2023/02/19 07:53:45;;;;;;;8.73;2.03;;;17.50;50.00;;;;;;5074307;28;20186;-69
2023/02/19 07:56:13;;;;;;;6.20;1.90;;;17.50;50.00;;;;;;5074770;28;20219;-69
2023/02/19 07:58:40;;;;;;;6.25;1.90;;;17.50;50.00;;;;;;5074776;28;20217;-69
2023/02/19 08:01:11;;;;;;;5.25;1.85;;;17.50;50.00;;;;;;5074826;28;20257;-69
2023/02/19 08:03:38;;;;;;;6.28;1.55;;;17.50;50.00;;;;;;5074316;28;20187;-70
2023/02/19 08:06:06;;;;;;;6.18;1.70;;;17.50;50.00;;;;;;5074744;28;20311;-69
2023/02/19 08:08:33;;;;;;;7.82;2.20;;;17.50;50.00;;;;;;5074354;28;20249;-69
2023/02/19 08:13:48;;;;;;;5.53;1.65;;;17.50;50.00;;;;;;5074119;28;20194;-70
2023/02/19 08:16:18;;;;;;;7.47;2.10;;;17.50;50.00;;;;;;5074031;28;20230;-69
2023/02/19 08:18:47;;;;;;;5.93;1.92;;;17.40;49.90;;;;;;5074371;28;20800;-69
2023/02/19 08:21:16;;;;;;;5.43;1.98;;;17.50;50.00;;;;;;5074330;28;20288;-69
2023/02/19 08:23:45;;;;;;;6.30;2.28;;;17.50;49.90;;;;;;5073847;28;20199;-69
2023/02/19 08:26:12;;;;;;;7.75;2.45;;;17.50;49.90;;;;;;5074387;28;20214;-69
2023/02/19 08:28:39;;;;;;;5.47;1.90;;;17.40;49.80;;;;;;5073984;28;20240;-69
2023/02/19 08:31:08;;;;;;;7.00;1.90;;;17.50;49.90;;;;;;5074291;28;20223;-69
2023/02/19 08:33:37;;;;;;;7.53;2.33;;;17.50;49.90;;;;;;5073811;28;20191;-69
2023/02/19 08:36:07;;;;;;;6.70;1.83;;;17.40;49.80;;;;;;5073381;28;20218;-69
2023/02/19 08:38:36;;;;;;;8.90;2.03;;;17.40;49.80;;;;;;5073797;28;20721;-70
2023/02/19 08:41:07;;;;;;;7.10;1.92;;;17.50;49.90;;;;;;5073958;28;20235;-69
2023/02/19 08:43:35;;;;;;;8.10;2.50;;;17.40;49.80;;;;;;5073694;28;20191;-69
2023/02/19 08:46:03;;;;;;;5.25;2.30;;;17.40;49.80;;;;;;5073742;28;20630;-69
2023/02/19 08:48:30;;;;;;;9.07;1.90;;;17.40;49.80;;;;;;5073586;28;20575;-67
2023/02/19 08:51:02;;;;;;;8.27;2.10;;;17.40;49.80;;;;;;5073878;28;20223;-67
2023/02/19 08:53:30;;;;;;;6.65;2.30;;;17.40;49.80;;;;;;5073561;28;20187;-68
2023/02/19 08:55:57;;;;;;;7.88;2.15;;;17.40;49.80;;;;;;5073324;28;20284;-68
2023/02/19 08:58:25;;;;;;;4.00;1.88;;;17.40;49.70;;;;;;5073195;28;20252;-68
2023/02/19 09:00:52;;;;;;;7.47;2.20;;;17.40;49.80;;;;;;5073590;28;20321;-69
2023/02/19 09:03:19;;;;;;;6.75;2.15;;;17.40;49.80;;;;;;5073477;28;20187;-69
2023/02/19 09:05:46;;;;;;;4.90;2.00;;;17.40;49.70;;;;;;5073170;28;20757;-69
2023/02/19 09:08:15;;;;;;;6.80;2.05;;;17.40;49.70;;;;;;5073516;28;20198;-68
2023/02/19 09:10:42;;;;;;;7.47;1.75;;;17.40;49.70;;;;;;5072790;28;20811;-69
2023/02/19 09:13:09;;;;;;;10.13;1.73;;;17.40;49.70;;;;;;5073376;28;20264;-69
2023/02/19 09:15:38;;;;;;;9.82;2.25;;;17.40;49.70;;;;;;5072969;28;20284;-69
2023/02/19 09:18:05;;;;;;;5.90;1.52;;;17.40;49.80;;;;;;5073283;28;20256;-69
2023/02/19 09:20:32;;;;;;;9.02;2.20;;;17.40;49.70;;;;;;5072854;28;20272;-69
2023/02/19 09:22:59;;;;;;;9.32;2.22;;;17.40;49.70;;;;;;5072583;28;20275;-69
2023/02/19 09:25:28;;;;;;;4.78;2.03;;;17.40;49.70;;;;;;5072516;28;20719;-69
2023/02/19 09:27:56;;;;;;;4.53;2.03;;;17.30;49.70;;;;;;5073058;28;20614;-69
2023/02/19 09:30:23;;;;;;;5.93;1.88;;;17.30;49.70;;;;;;5072678;28;20745;-69
2023/02/19 09:32:50;;;;;;;7.53;2.15;;;17.40;49.80;;;;;;5072665;28;20252;-69
2023/02/19 09:35:17;;;;;;;6.82;2.10;;;17.40;49.70;;;;;;5072101;28;20211;-68
2023/02/19 09:37:45;;;;;;;9.80;2.47;;;17.40;49.80;;;;;;5072895;28;20248;-69
2023/02/19 09:40:12;;;;;;;9.50;2.30;;;17.40;49.70;;;;;;5072505;28;20758;-69
2023/02/19 09:42:43;;;;;;;6.85;2.33;;;17.40;49.70;;;;;;5072434;28;20218;-69
2023/02/19 09:45:19;;;;;;;7.00;2.10;;;17.40;49.70;;;;;;5072726;28;20219;-69
2023/02/19 09:47:46;;;;;;;7.38;1.88;;;17.40;49.70;;;;;;5072453;28;20240;-69
2023/02/19 09:50:20;;;;;;;6.68;1.88;;;17.40;49.70;;;;;;5072647;28;20261;-69
2023/02/19 09:52:52;;;;;;;6.22;2.00;;;17.30;49.60;;;;;;5072555;28;20191;-69
2023/02/19 09:55:29;;;;;;;5.72;1.95;;;17.30;49.60;;;;;;5072515;28;20268;-69
2023/02/19 09:58:00;;;;;;;6.50;2.17;;;17.30;49.70;;;;;;5072628;28;20190;-69
2023/02/19 10:00:29;;;;;;;6.22;1.90;;;17.30;49.70;;;;;;5072064;28;20567;-69
2023/02/19 10:03:04;;;;;;;5.85;1.80;;;17.40;49.80;;;;;;5072466;28;20218;-69
2023/02/19 10:05:33;;;;;;;7.22;2.40;;;17.40;49.70;;;;;;5072170;28;20762;-69
2023/02/19 10:08:04;;;;;;;6.32;2.20;;;17.40;49.70;;;;;;5072249;28;20657;-69
2023/02/19 10:10:33;;;;;;;5.03;1.77;;;17.40;49.70;;;;;;5072304;28;20268;-69
2023/02/19 10:13:15;;;;;;;7.00;2.22;;;17.40;49.70;;;;;;5072228;28;20191;-69
2023/02/19 10:15:46;;;;;;;6.07;2.05;;;17.40;49.70;;;;;;5071762;28;20234;-69
2023/02/19 10:18:17;;;;;;;6.35;1.67;;;17.40;49.70;;;;;;5072397;28;20187;-69
2023/02/19 10:20:44;;;;;;;5.75;1.65;;;17.40;49.70;;;;;;5072372;28;20214;-69
2023/02/19 10:23:14;;;;;;;7.35;2.03;;;17.40;49.70;;;;;;5071357;28;20774;-69
2023/02/19 10:25:46;;;;;;;7.93;2.10;;;17.40;49.70;;;;;;5072113;28;20218;-69
2023/02/19 10:28:17;;;;;;;4.68;2.10;;;17.30;49.60;;;;;;5072429;28;20191;-69
2023/02/19 10:30:48;;;;;;;4.25;1.52;;;17.30;49.60;;;;;;5072391;28;20222;-69
2023/02/19 10:33:16;;;;;;;6.55;1.88;;;17.30;49.60;;;;;;5075066;28;20191;-69
2023/02/19 10:35:54;;;;;;;5.22;2.00;;;17.40;49.70;;;;;;5075519;28;20272;-68
2023/02/19 10:38:24;;;;;;;4.57;1.85;;;17.40;49.70;;;;;;5076198;28;20205;-67
2023/02/19 10:40:59;;;;;;;3.65;1.90;;;17.40;49.70;;;;;;5075977;28;20210;-69
2023/02/19 10:43:33;;;;;;;6.97;1.80;;;17.40;49.70;;;;;;5076222;28;20259;-68
2023/02/19 10:46:04;;;;;;;7.22;2.28;;;17.30;49.60;;;;;;5075956;28;20712;-68
2023/02/19 10:48:34;;;;;;;4.68;1.65;;;17.40;49.70;;;;;;5075766;28;20190;-69
2023/02/19 10:51:05;;;;;;;5.47;2.03;;;17.40;49.70;;;;;;5075828;28;20730;-68
2023/02/19 10:53:44;;;;;;;4.85;1.75;;;17.30;49.60;;;;;;5076045;28;20183;-67
2023/02/19 10:56:14;;;;;;;5.88;1.90;;;17.30;49.50;;;;;;5075559;28;20687;-69
2023/02/19 10:58:45;;;;;;;5.43;2.45;;;17.30;49.50;;;;;;5075310;28;20268;-68
2023/02/19 11:01:18;;;;;;;4.97;1.63;;;17.30;49.50;;;;;;5075598;28;20301;-66
2023/02/19 11:03:45;;;;;;;6.10;1.92;;;17.30;49.50;;;;;;5075579;28;20190;-68
2023/02/19 11:06:15;;;;;;;7.05;2.13;;;17.30;49.50;;;;;;5075781;28;20218;-68
2023/02/19 11:08:54;;;;;;;6.18;1.65;;;17.30;50.10;;;;;;5075382;28;20191;-68
2023/02/19 11:11:28;;;;;;;5.18;1.50;;;17.30;49.50;;;;;;5075238;28;20629;-68
2023/02/19 11:13:59;;;;;;;5.20;1.70;;;17.30;49.50;;;;;;5075356;28;20195;-69
2023/02/19 11:16:39;;;;;;;5.85;1.90;;;17.40;49.60;;;;;;5075257;28;20281;-68
2023/02/19 11:19:06;;;;;;;5.53;2.03;;;17.30;49.40;;;;;;5075565;28;20214;-68
2023/02/19 11:21:33;;;;;;;5.00;1.73;;;17.30;49.40;;;;;;5075417;28;20276;-70
2023/02/19 11:24:02;;;;;;;4.38;1.80;;;17.30;49.40;;;;;;5074741;28;20186;-67
2023/02/19 11:26:34;;;;;;;5.55;1.90;;;17.30;49.40;;;;;;5075110;28;20215;-68
2023/02/19 11:29:17;;;;;;;3.58;1.90;;;17.30;49.40;;;;;;5075463;28;20187;-69
2023/02/19 11:31:45;;;;;;;6.20;1.80;;;17.40;49.50;;;;;;5075420;28;20218;-69
2023/02/19 11:34:28;;;;;;;6.18;2.05;;;17.30;49.40;;;;;;5074815;28;20277;-68
2023/02/19 11:37:09;;;;;;;4.30;1.90;;;17.40;49.50;;;;;;5075112;28;20268;-68
2023/02/19 11:39:37;;;;;;;4.15;1.63;;;17.30;49.40;;;;;;5075194;28;20215;-68
2023/02/19 11:42:16;;;;;;;6.13;1.70;;;17.30;49.40;;;;;;5074659;28;20268;-69
2023/02/19 11:45:07;;;;;;;5.72;2.30;;;17.30;49.40;;;;;;5074085;28;20210;-68
2023/02/19 11:48:10;;;;;;;6.60;1.95;;;17.30;49.40;;;;;;5074699;28;20565;-69
2023/02/19 11:50:51;;;;;;;4.90;1.98;;;17.30;49.40;;;;;;5053894;28;20329;-67
2023/02/19 11:53:26;;;;;;;6.15;1.80;;;17.30;49.40;;;;;;5055241;28;20195;-70
2023/02/19 11:56:10;;;;;;;4.13;1.65;;;17.30;49.40;;;;;;5054772;28;20225;-68
2023/02/19 11:59:05;;;;;;;6.35;1.92;;;17.30;49.40;;;;;;5054792;28;20275;-67
2023/02/19 12:02:06;;;;;;;5.75;1.83;;;17.30;49.40;;;;;;5071395;28;20734;-69
2023/02/19 12:05:02;;;;;;;7.63;1.95;;;17.30;49.40;;;;;;5059155;28;20199;-69
2023/02/19 12:08:02;;;;;;;6.13;2.10;;;17.30;49.40;;;;;;5074880;28;20222;-69
2023/02/19 12:10:39;;;;;;;7.13;2.17;;;17.30;49.40;;;;;;5072716;28;20252;-67
2023/02/19 12:13:14;;;;;;;5.90;1.90;;;17.30;49.40;;;;;;5074252;28;20187;-67
2023/02/19 12:16:04;;;;;;;5.03;1.70;;;17.30;49.40;;;;;;5073844;28;20256;-67
2023/02/19 12:19:01;;;;;;;9.13;2.10;;;17.30;49.40;;;;;;5074512;28;20192;-69
2023/02/19 12:21:58;;;;;;;4.78;2.05;;;17.30;49.40;;;;;;5008058;28;20753;-68
2023/02/19 12:24:45;;;;;;;6.45;1.90;;;17.30;49.40;;;;;;5009318;28;20197;-69
2023/02/19 12:27:33;;;;;;;8.02;1.90;;;17.30;49.40;;;;;;5012070;28;20224;-68
2023/02/19 12:30:30;;;;;;;5.18;1.67;;;17.30;49.40;;;;;;5011914;28;20216;-68
2023/02/19 12:33:27;;;;;;;8.45;2.22;;;17.30;49.40;;;;;;5011993;28;20225;-68
2023/02/19 12:36:04;;;;;;;6.25;1.77;;;17.30;49.40;;;;;;5011435;28;20260;-68
2023/02/19 12:38:36;;;;;;;5.07;1.92;;;17.30;49.40;;;;;;5011756;28;20619;-69
2023/02/19 12:41:24;;;;;;;6.88;1.63;;;17.30;49.40;;;;;;5011742;28;20197;-69
2023/02/19 12:43:56;;;;;;;6.70;1.90;;;17.30;49.40;;;;;;5009785;28;20217;-69
2023/02/19 12:46:29;;;;;;;10.35;2.15;;;17.30;49.40;;;;;;5011451;28;20221;-68
2023/02/19 12:49:01;;;;;;;8.65;2.35;;;17.30;49.40;;;;;;5011317;28;20629;-67
2023/02/19 12:51:35;;;;;;;6.60;1.90;;;17.30;49.40;;;;;;5011585;28;20699;-67
2023/02/19 12:54:06;;;;;;;5.38;1.60;;;17.30;49.40;;;;;;5011468;28;20197;-69
2023/02/19 12:56:42;;;;;;;5.43;1.80;;;17.30;49.40;;;;;;5010373;28;20225;-69
2023/02/19 12:59:16;;;;;;;7.55;1.92;;;17.30;49.70;;;;;;5057977;28;20198;-69
2023/02/19 13:01:50;;;;;;;7.07;2.10;;;17.30;49.40;;;;;;5073152;28;20290;-69
2023/02/19 13:04:25;;;;;;;5.03;1.55;;;17.30;49.40;;;;;;5073529;28;20190;-69
2023/02/19 13:06:59;;;;;;;6.57;1.80;;;17.30;49.40;;;;;;5073494;28;20287;-69
2023/02/19 13:09:33;;;;;;;4.72;1.88;;;17.30;49.40;;;;;;5073167;28;20191;-69
2023/02/19 13:12:05;;;;;;;6.88;2.00;;;17.30;49.40;;;;;;5073114;28;20222;-68
2023/02/19 13:14:37;;;;;;;6.35;2.50;;;17.30;49.40;;;;;;5073066;28;20213;-69
2023/02/19 13:17:11;;;;;;;4.22;1.90;;;17.30;49.40;;;;;;5072806;28;20284;-69
2023/02/19 13:19:39;;;;;;;6.45;2.13;;;17.30;49.50;;;;;;5072942;28;20668;-68
2023/02/19 13:25:07;;;;;;;6.78;1.77;;;17.30;49.40;;;;;;5072592;28;20190;-69
2023/02/19 13:28:27;;;;;;;5.00;1.40;;;17.30;49.50;;;;;;5073209;28;20219;-69
2023/02/19 13:31:10;;;;;;;4.93;2.00;;;17.30;49.40;;;;;;5010858;28;20197;-68
2023/02/19 13:33:53;;;;;;;6.15;2.15;;;17.30;49.40;;;;;;5010854;28;20200;-69
2023/02/19 13:36:24;;;;;;;5.97;1.73;;;17.30;49.40;;;;;;5010255;28;20243;-68